Time;durP1;ratioP1;P1;durP2;ratioP2;P2;SDS_P1;SDS_P2;PMS_P1;PMS_P2;Temp;Humidity;BMP_temperature;BMP_pressure;BME280_temperature;BME280_humidity;BME280_pressure;Samples;Min_cycle;Max_cycle;Signal;HPM_P1;HPM_P2
2023/07/18 00:00:25;;;;;;;0.00;0.00;;;17.00;99.90;;;;;;5094743;28;20024;-71
2023/07/18 00:02:51;;;;;;;0.10;0.10;;;17.00;99.90;;;;;;5094565;28;20090;-71
2023/07/18 00:05:17;;;;;;;0.00;0.00;;;16.90;99.90;;;;;;5087045;28;20100;-71
2023/07/18 00:07:44;;;;;;;0.08;0.08;;;17.10;99.90;;;;;;5085701;28;20169;-72
2023/07/18 00:10:11;;;;;;;0.00;0.00;;;17.20;99.90;;;;;;5094537;28;20039;-72
2023/07/18 00:12:38;;;;;;;0.10;0.10;;;17.20;99.90;;;;;;5094319;28;20103;-71
2023/07/18 00:15:06;;;;;;;0.00;0.00;;;17.00;99.90;;;;;;5094421;28;20035;-72
2023/07/18 00:17:33;;;;;;;0.10;0.10;;;17.00;99.90;;;;;;5073051;28;20035;-71
2023/07/18 00:20:04;;;;;;;0.10;0.10;;;17.00;99.90;;;;;;5089525;28;20111;-72
2023/07/18 00:22:30;;;;;;;0.10;0.10;;;17.10;99.90;;;;;;5093334;28;20058;-71
2023/07/18 00:24:56;;;;;;;0.00;0.00;;;17.10;99.90;;;;;;5092891;28;20616;-72
2023/07/18 00:27:22;;;;;;;0.08;0.08;;;17.10;99.90;;;;;;5094171;28;20111;-71
2023/07/18 00:29:48;;;;;;;0.10;0.10;;;17.20;99.90;;;;;;5094334;28;20494;-72
2023/07/18 00:32:14;;;;;;;0.00;0.00;;;17.30;99.90;;;;;;5094256;28;20028;-79
2023/07/18 00:34:41;;;;;;;0.10;0.10;;;17.10;99.90;;;;;;5094115;28;20020;-79
2023/07/18 00:37:07;;;;;;;0.10;0.10;;;17.00;99.90;;;;;;5090562;28;20028;-79
2023/07/18 00:39:32;;;;;;;0.10;0.10;;;16.80;99.90;;;;;;5082381;28;20484;-76
2023/07/18 00:42:00;;;;;;;0.10;0.10;;;16.40;99.90;;;;;;5093496;28;20028;-79
2023/07/18 00:44:26;;;;;;;0.10;0.10;;;16.20;99.90;;;;;;5092750;28;20081;-79
2023/07/18 00:46:53;;;;;;;0.00;0.00;;;15.80;99.90;;;;;;5094002;28;20024;-78
2023/07/18 00:49:18;;;;;;;0.10;0.10;;;15.60;99.90;;;;;;5092513;28;20028;-79
2023/07/18 00:51:45;;;;;;;0.10;0.10;;;15.50;99.90;;;;;;5093733;28;20022;-79
2023/07/18 00:54:11;;;;;;;0.10;0.10;;;15.60;99.90;;;;;;5075626;28;20028;-79
2023/07/18 00:56:37;;;;;;;0.10;0.10;;;15.50;99.90;;;;;;5092096;28;20063;-78
2023/07/18 00:59:04;;;;;;;0.10;0.10;;;15.70;99.90;;;;;;5092399;28;20055;-76
2023/07/18 01:01:32;;;;;;;0.10;0.10;;;15.80;99.90;;;;;;5093588;28;20085;-77
2023/07/18 01:03:57;;;;;;;0.10;0.10;;;15.90;99.90;;;;;;5093569;28;20060;-79
2023/07/18 01:06:24;;;;;;;0.20;0.20;;;15.80;99.90;;;;;;5079048;28;20052;-78
2023/07/18 01:08:50;;;;;;;0.00;0.00;;;15.60;99.90;;;;;;5092341;28;20055;-79
2023/07/18 01:11:16;;;;;;;0.10;0.10;;;15.70;99.90;;;;;;5093231;28;20048;-72
2023/07/18 01:13:42;;;;;;;0.08;0.08;;;15.90;99.90;;;;;;5093289;28;20016;-71
2023/07/18 01:16:07;;;;;;;0.20;0.20;;;15.90;99.90;;;;;;5093597;28;20555;-71
2023/07/18 01:18:33;;;;;;;0.20;0.20;;;15.80;99.90;;;;;;5091968;28;20061;-72
2023/07/18 01:21:01;;;;;;;0.10;0.10;;;15.80;99.90;;;;;;5093056;28;20051;-78
2023/07/18 01:23:28;;;;;;;0.10;0.10;;;15.70;99.90;;;;;;5092814;28;20036;-78
2023/07/18 01:25:54;;;;;;;0.10;0.10;;;15.40;99.90;;;;;;5092913;28;20103;-78
2023/07/18 01:28:22;;;;;;;0.10;0.10;;;15.50;99.90;;;;;;5077866;28;20028;-78
2023/07/18 01:30:48;;;;;;;0.38;0.38;;;15.50;99.90;;;;;;5091823;28;20379;-78
2023/07/18 01:33:14;;;;;;;0.20;0.20;;;15.30;99.90;;;;;;5092984;28;20052;-78
2023/07/18 01:35:40;;;;;;;0.10;0.10;;;15.00;99.90;;;;;;5073476;28;20522;-77
2023/07/18 01:38:07;;;;;;;0.10;0.10;;;15.10;99.90;;;;;;5073695;28;20029;-77
2023/07/18 01:40:32;;;;;;;0.10;0.10;;;15.10;99.90;;;;;;5078826;28;20032;-78
2023/07/18 01:42:58;;;;;;;0.10;0.10;;;15.20;99.90;;;;;;5089290;28;20037;-78
2023/07/18 01:45:27;;;;;;;0.10;0.10;;;15.20;99.90;;;;;;5082536;28;20036;-78
2023/07/18 01:47:55;;;;;;;0.10;0.10;;;15.20;99.90;;;;;;5074153;28;20036;-77
2023/07/18 01:50:20;;;;;;;0.10;0.10;;;15.30;99.90;;;;;;5093772;28;20027;-77
2023/07/18 01:52:47;;;;;;;0.10;0.10;;;15.30;99.90;;;;;;5079005;28;20033;-78
2023/07/18 01:55:12;;;;;;;0.17;0.17;;;15.20;99.90;;;;;;5091117;28;20020;-78
2023/07/18 01:57:38;;;;;;;0.10;0.10;;;15.10;99.90;;;;;;5092682;28;20035;-76
2023/07/18 02:00:10;;;;;;;0.10;0.10;;;15.50;99.90;;;;;;5091346;28;20054;-78
2023/07/18 02:02:39;;;;;;;0.80;0.73;;;15.30;99.90;;;;;;5091381;28;20058;-78
2023/07/18 02:05:07;;;;;;;0.10;0.10;;;15.50;99.90;;;;;;5091444;28;20488;-77
2023/07/18 02:07:34;;;;;;;0.10;0.10;;;15.20;99.90;;;;;;5092642;28;20028;-78
2023/07/18 02:10:00;;;;;;;0.10;0.10;;;14.80;99.90;;;;;;5076910;28;20422;-78
2023/07/18 02:12:26;;;;;;;0.10;0.10;;;14.60;99.90;;;;;;5091506;28;20024;-78
2023/07/18 02:14:52;;;;;;;19.58;3.95;;;14.80;99.90;;;;;;5074746;28;20468;-78
2023/07/18 02:17:18;;;;;;;0.10;0.10;;;14.80;99.90;;;;;;5092417;28;20028;-78
2023/07/18 02:19:44;;;;;;;2.00;1.90;;;14.80;99.90;;;;;;5091333;28;20122;-78
2023/07/18 02:22:10;;;;;;;0.20;0.20;;;14.80;99.90;;;;;;5092280;28;20118;-78
2023/07/18 02:24:36;;;;;;;0.22;0.22;;;14.80;99.90;;;;;;5091405;28;20035;-77
2023/07/18 02:27:04;;;;;;;0.10;0.10;;;14.70;99.90;;;;;;5092639;28;20701;-76
2023/07/18 02:29:30;;;;;;;0.30;0.30;;;14.50;99.90;;;;;;5092531;28;20024;-78
2023/07/18 02:31:56;;;;;;;0.22;0.22;;;14.60;99.90;;;;;;5074394;28;20032;-78
2023/07/18 02:34:25;;;;;;;0.10;0.10;;;14.70;99.90;;;;;;5093475;28;20537;-78
2023/07/18 02:36:51;;;;;;;0.15;0.15;;;14.90;99.90;;;;;;5094988;28;20030;-78
2023/07/18 02:39:17;;;;;;;0.10;0.10;;;14.90;99.90;;;;;;5096178;28;20107;-78
2023/07/18 02:41:42;;;;;;;0.10;0.10;;;14.80;99.90;;;;;;5096474;28;20487;-77
2023/07/18 02:44:08;;;;;;;0.10;0.10;;;14.80;99.90;;;;;;5080534;28;20028;-78
2023/07/18 02:46:34;;;;;;;0.10;0.10;;;14.90;99.90;;;;;;5094931;28;20494;-78
2023/07/18 02:49:01;;;;;;;0.10;0.10;;;15.00;99.90;;;;;;5095170;28;20024;-78
2023/07/18 02:51:28;;;;;;;0.10;0.10;;;15.10;99.90;;;;;;5094590;28;20057;-78
2023/07/18 02:53:54;;;;;;;0.20;0.20;;;14.80;99.90;;;;;;5095871;28;20414;-78
2023/07/18 02:56:20;;;;;;;0.10;0.10;;;14.80;99.90;;;;;;5094956;28;20039;-78
2023/07/18 02:58:47;;;;;;;0.10;0.10;;;14.70;99.90;;;;;;5094815;28;20020;-75
2023/07/18 03:01:13;;;;;;;0.10;0.10;;;14.80;99.90;;;;;;5095831;28;20050;-77
2023/07/18 03:03:40;;;;;;;0.10;0.10;;;14.90;99.90;;;;;;5094515;28;20095;-78
2023/07/18 03:06:07;;;;;;;0.10;0.10;;;15.10;99.90;;;;;;5077451;28;20171;-78
2023/07/18 03:08:34;;;;;;;1.17;1.08;;;15.20;99.90;;;;;;5094419;28;20540;-77
2023/07/18 03:11:05;;;;;;;0.00;0.00;;;15.10;99.90;;;;;;5096023;28;20047;-78
2023/07/18 03:13:31;;;;;;;0.10;0.10;;;15.20;99.90;;;;;;5095616;28;20023;-77
2023/07/18 03:15:57;;;;;;;0.10;0.10;;;15.20;99.90;;;;;;5095633;28;20097;-77
2023/07/18 03:18:24;;;;;;;0.10;0.10;;;15.20;99.90;;;;;;5095599;28;20032;-78
2023/07/18 03:20:50;;;;;;;0.10;0.10;;;14.60;99.90;;;;;;5094118;28;20040;-77
2023/07/18 03:23:16;;;;;;;0.10;0.10;;;14.40;99.90;;;;;;5095491;28;20080;-78
2023/07/18 03:25:42;;;;;;;0.10;0.10;;;14.40;99.90;;;;;;5094268;28;20024;-78
2023/07/18 03:28:08;;;;;;;0.10;0.10;;;14.40;99.90;;;;;;5095435;28;20032;-77
2023/07/18 03:30:34;;;;;;;0.10;0.10;;;14.30;99.90;;;;;;5095373;28;20357;-77
2023/07/18 03:33:00;;;;;;;0.10;0.10;;;14.30;99.90;;;;;;5095357;28;20047;-78
2023/07/18 03:35:26;;;;;;;0.10;0.10;;;14.40;99.90;;;;;;5094998;28;20020;-78
2023/07/18 03:37:55;;;;;;;0.00;0.00;;;14.00;99.90;;;;;;5095267;28;20110;-77
2023/07/18 03:40:22;;;;;;;0.40;0.40;;;14.20;99.90;;;;;;5095228;28;20027;-74
2023/07/18 03:42:47;;;;;;;0.10;0.10;;;14.20;99.90;;;;;;5090357;28;20389;-72
2023/07/18 03:45:14;;;;;;;0.10;0.10;;;14.10;99.90;;;;;;5084101;28;20525;-75
2023/07/18 03:47:41;;;;;;;0.10;0.10;;;14.30;99.90;;;;;;5095069;28;20405;-77
2023/07/18 03:50:10;;;;;;;0.10;0.10;;;14.30;99.90;;;;;;5094644;28;20028;-78
2023/07/18 03:52:36;;;;;;;0.10;0.10;;;14.30;99.90;;;;;;5093291;28;20028;-77
2023/07/18 03:55:03;;;;;;;1.80;0.47;;;14.10;99.90;;;;;;5094194;28;20016;-77
2023/07/18 03:57:30;;;;;;;0.10;0.10;;;14.20;99.90;;;;;;5093326;28;20384;-77
2023/07/18 03:59:56;;;;;;;0.10;0.10;;;14.20;99.90;;;;;;5094541;28;20022;-77
2023/07/18 04:02:22;;;;;;;0.10;0.10;;;14.20;99.90;;;;;;5094637;28;20028;-78
2023/07/18 04:04:47;;;;;;;0.10;0.10;;;14.20;99.90;;;;;;5093964;28;20035;-77
2023/07/18 04:07:13;;;;;;;0.08;0.08;;;14.20;99.90;;;;;;5094713;28;20036;-77
2023/07/18 04:09:39;;;;;;;0.15;0.15;;;14.40;99.90;;;;;;5093032;28;20024;-77
2023/07/18 04:12:05;;;;;;;0.10;0.10;;;14.10;99.90;;;;;;5094717;28;20499;-78
2023/07/18 04:14:31;;;;;;;0.98;0.93;;;13.90;99.90;;;;;;5094409;28;20031;-78
2023/07/18 04:16:57;;;;;;;0.10;0.10;;;13.90;99.90;;;;;;5093282;28;20020;-78
2023/07/18 04:19:23;;;;;;;0.63;0.40;;;13.80;99.90;;;;;;5094212;28;20061;-77
2023/07/18 04:21:48;;;;;;;0.10;0.10;;;14.00;99.90;;;;;;5092903;28;20024;-78
2023/07/18 04:24:14;;;;;;;0.10;0.10;;;14.10;99.90;;;;;;5094336;28;20137;-78
2023/07/18 04:26:40;;;;;;;2.35;0.43;;;14.30;99.90;;;;;;5094169;28;20532;-78
2023/07/18 04:29:06;;;;;;;0.10;0.10;;;14.10;99.90;;;;;;5093068;28;20039;-78
2023/07/18 04:31:32;;;;;;;0.10;0.10;;;14.40;99.90;;;;;;5094082;28;20301;-78
2023/07/18 04:33:59;;;;;;;0.10;0.10;;;14.50;99.90;;;;;;5093772;28;20465;-77
2023/07/18 04:36:25;;;;;;;0.10;0.10;;;14.20;99.90;;;;;;5094070;28;20016;-78
2023/07/18 04:38:50;;;;;;;0.80;0.43;;;14.20;99.90;;;;;;5094133;28;20487;-78
2023/07/18 04:41:16;;;;;;;0.10;0.10;;;14.10;99.90;;;;;;5093972;28;20055;-77
2023/07/18 04:43:42;;;;;;;0.10;0.10;;;14.00;99.90;;;;;;5082767;28;20052;-77
2023/07/18 04:46:10;;;;;;;0.10;0.10;;;14.10;99.90;;;;;;5092802;28;20020;-76
2023/07/18 04:48:36;;;;;;;0.10;0.10;;;13.90;99.90;;;;;;5095055;28;20114;-78
2023/07/18 04:51:03;;;;;;;0.75;0.75;;;14.00;99.90;;;;;;5093786;28;20027;-78
2023/07/18 04:53:31;;;;;;;0.20;0.20;;;14.20;99.90;;;;;;5093991;28;20104;-77
2023/07/18 04:55:57;;;;;;;0.47;0.47;;;14.20;99.90;;;;;;5093569;28;20055;-77
2023/07/18 04:58:25;;;;;;;0.93;0.70;;;14.30;99.90;;;;;;5092980;28;20381;-77
2023/07/18 05:00:51;;;;;;;0.30;0.30;;;14.40;99.90;;;;;;5093715;28;20055;-78
2023/07/18 05:03:17;;;;;;;0.20;0.20;;;14.30;99.90;;;;;;5093168;28;20040;-77
2023/07/18 05:05:43;;;;;;;0.10;0.10;;;14.30;99.90;;;;;;5093570;28;20035;-78
2023/07/18 05:08:09;;;;;;;0.45;0.45;;;14.40;99.90;;;;;;5093331;28;20394;-78
2023/07/18 05:10:35;;;;;;;0.30;0.30;;;14.60;99.90;;;;;;5092366;28;20032;-78
2023/07/18 05:13:01;;;;;;;0.10;0.10;;;14.80;99.90;;;;;;5093456;28;20094;-77
2023/07/18 05:15:26;;;;;;;0.10;0.10;;;14.90;99.90;;;;;;5092333;28;20039;-78
2023/07/18 05:17:52;;;;;;;0.10;0.10;;;14.80;99.90;;;;;;5093228;28;20028;-77
2023/07/18 05:20:19;;;;;;;1.30;0.80;;;14.90;99.90;;;;;;5093185;28;20020;-78
2023/07/18 05:22:45;;;;;;;0.93;0.35;;;14.60;99.90;;;;;;5093066;28;20130;-79
2023/07/18 05:25:13;;;;;;;0.30;0.30;;;14.60;99.90;;;;;;5093176;28;20054;-78
2023/07/18 05:27:40;;;;;;;0.10;0.10;;;14.70;99.90;;;;;;5093410;28;20020;-78
2023/07/18 05:30:18;;;;;;;3.60;0.52;;;14.50;99.90;;;;;;5092854;28;20036;-78
2023/07/18 05:32:44;;;;;;;0.10;0.10;;;14.50;99.90;;;;;;5093497;28;20044;-78
2023/07/18 05:35:13;;;;;;;1.45;0.40;;;14.70;99.90;;;;;;5092839;28;20489;-77
2023/07/18 05:37:41;;;;;;;0.25;0.25;;;14.80;99.90;;;;;;5093149;28;20027;-78
2023/07/18 05:40:10;;;;;;;0.30;0.30;;;14.90;99.90;;;;;;5093191;28;20023;-78
2023/07/18 05:42:40;;;;;;;0.32;0.32;;;14.90;99.90;;;;;;5075280;28;20040;-78
2023/07/18 05:45:08;;;;;;;0.30;0.30;;;15.10;99.90;;;;;;5081395;28;20077;-77
2023/07/18 05:47:34;;;;;;;0.08;0.08;;;15.20;99.90;;;;;;5091435;28;20024;-77
2023/07/18 05:50:01;;;;;;;0.10;0.10;;;15.40;99.90;;;;;;5093060;28;20405;-76
2023/07/18 05:52:27;;;;;;;0.38;0.38;;;15.50;99.90;;;;;;5092804;28;20053;-77
2023/07/18 05:54:52;;;;;;;0.85;0.47;;;15.50;99.90;;;;;;5092991;28;20031;-78
2023/07/18 05:57:18;;;;;;;0.10;0.10;;;15.70;99.90;;;;;;5092638;28;20032;-78
2023/07/18 05:59:44;;;;;;;0.10;0.10;;;15.50;99.90;;;;;;5092476;28;20028;-78
2023/07/18 06:02:11;;;;;;;0.35;0.35;;;15.60;99.90;;;;;;5092441;28;20037;-78
2023/07/18 06:04:37;;;;;;;4.63;1.20;;;15.70;99.90;;;;;;5092863;28;20027;-78
2023/07/18 06:07:03;;;;;;;0.28;0.28;;;15.60;99.90;;;;;;5092508;28;20032;-77
2023/07/18 06:09:29;;;;;;;1.45;1.05;;;15.40;99.90;;;;;;5095769;28;20368;-78
2023/07/18 06:11:55;;;;;;;0.30;0.17;;;15.50;99.90;;;;;;5096610;28;20016;-78
2023/07/18 06:14:21;;;;;;;0.30;0.30;;;15.90;99.90;;;;;;5092164;28;20020;-75
2023/07/18 06:16:47;;;;;;;0.10;0.10;;;15.80;99.90;;;;;;5083078;28;20028;-76
2023/07/18 06:19:13;;;;;;;1.35;0.80;;;16.10;99.90;;;;;;5075436;28;20617;-76
2023/07/18 06:21:39;;;;;;;2.50;0.68;;;16.20;99.90;;;;;;5078462;28;20107;-77
2023/07/18 06:24:06;;;;;;;0.35;0.28;;;16.40;99.90;;;;;;5074376;28;20502;-78
2023/07/18 06:26:32;;;;;;;0.30;0.30;;;16.20;99.90;;;;;;5074852;28;20035;-78
2023/07/18 06:28:57;;;;;;;1.98;0.65;;;16.10;99.90;;;;;;5078916;28;20032;-81
2023/07/18 06:31:24;;;;;;;3.70;0.63;;;16.20;99.90;;;;;;5073289;28;20036;-81
2023/07/18 06:33:50;;;;;;;0.20;0.20;;;16.10;99.90;;;;;;5077117;28;20017;-81
2023/07/18 06:36:16;;;;;;;0.20;0.20;;;16.20;99.90;;;;;;5074829;28;20107;-81
2023/07/18 06:38:42;;;;;;;0.10;0.10;;;16.50;99.90;;;;;;5070729;28;20816;-80
2023/07/18 06:41:08;;;;;;;0.88;0.80;;;16.50;99.90;;;;;;5078785;28;20023;-80
2023/07/18 06:43:34;;;;;;;3.35;0.32;;;16.50;99.90;;;;;;5074707;28;20033;-81
2023/07/18 06:45:59;;;;;;;0.55;0.55;;;16.60;99.90;;;;;;5087777;28;20016;-81
2023/07/18 06:48:25;;;;;;;0.85;0.68;;;16.80;99.90;;;;;;5088010;28;20036;-81
2023/07/18 06:50:53;;;;;;;0.55;0.30;;;16.90;99.90;;;;;;5092058;28;20016;-82
2023/07/18 06:53:21;;;;;;;0.10;0.10;;;17.00;99.90;;;;;;5077934;28;20028;-80
2023/07/18 06:55:48;;;;;;;1.20;0.43;;;17.30;99.90;;;;;;5091767;28;20514;-77
2023/07/18 06:58:15;;;;;;;0.95;0.95;;;17.30;99.90;;;;;;5091265;28;20073;-75
2023/07/18 07:00:41;;;;;;;6.70;1.42;;;17.50;99.90;;;;;;5092128;28;20031;-80
2023/07/18 07:03:08;;;;;;;0.45;0.35;;;17.50;99.90;;;;;;5091262;28;20492;-80
2023/07/18 07:05:38;;;;;;;0.10;0.10;;;17.40;99.90;;;;;;5091965;28;20024;-81
2023/07/18 07:08:08;;;;;;;0.17;0.17;;;17.50;99.90;;;;;;5084791;28;20115;-80
2023/07/18 07:10:38;;;;;;;0.20;0.20;;;17.60;99.90;;;;;;5090748;28;20472;-81
2023/07/18 07:13:04;;;;;;;0.08;0.08;;;17.90;99.90;;;;;;5091140;28;20472;-78
2023/07/18 07:15:32;;;;;;;0.10;0.10;;;17.90;99.90;;;;;;5089916;28;20070;-77
2023/07/18 07:17:57;;;;;;;7.35;1.00;;;18.00;99.90;;;;;;5091470;28;20476;-80
2023/07/18 07:20:24;;;;;;;0.00;0.00;;;17.90;99.90;;;;;;5090610;28;20043;-81
2023/07/18 07:22:52;;;;;;;0.00;0.00;;;18.10;99.90;;;;;;5091589;28;20038;-80
2023/07/18 07:25:19;;;;;;;0.10;0.10;;;17.80;99.90;;;;;;5091253;28;20035;-81
2023/07/18 07:27:46;;;;;;;0.13;0.13;;;18.20;99.90;;;;;;5089915;28;20031;-81
2023/07/18 07:30:16;;;;;;;0.20;0.20;;;18.50;99.90;;;;;;5089625;28;20433;-81
2023/07/18 07:32:43;;;;;;;0.40;0.40;;;18.40;99.90;;;;;;5091565;28;20028;-81
2023/07/18 07:35:09;;;;;;;0.10;0.10;;;18.70;99.90;;;;;;5090846;28;20468;-81
2023/07/18 07:37:36;;;;;;;0.82;0.82;;;19.20;99.90;;;;;;5091472;28;20027;-80
2023/07/18 07:40:06;;;;;;;0.25;0.25;;;19.40;99.90;;;;;;5090684;28;20473;-79
2023/07/18 07:42:32;;;;;;;0.10;0.10;;;19.20;99.90;;;;;;5089039;28;20089;-81
2023/07/18 07:44:58;;;;;;;1.55;0.68;;;19.40;99.90;;;;;;5081395;28;20043;-78
2023/07/18 07:47:24;;;;;;;0.03;0.03;;;19.40;99.90;;;;;;5091211;28;20036;-78
2023/07/18 07:49:49;;;;;;;0.20;0.10;;;19.40;99.90;;;;;;5089406;28;20048;-77
2023/07/18 07:52:15;;;;;;;0.43;0.43;;;19.40;99.90;;;;;;5089543;28;20060;-76
2023/07/18 07:54:41;;;;;;;0.20;0.20;;;19.40;99.90;;;;;;5090695;28;20491;-83
2023/07/18 07:57:06;;;;;;;4.25;0.70;;;19.50;99.90;;;;;;5090484;28;20569;-83
2023/07/18 07:59:32;;;;;;;0.10;0.10;;;19.30;99.90;;;;;;5091165;28;20542;-75
2023/07/18 08:01:58;;;;;;;0.03;0.03;;;19.20;99.90;;;;;;5091093;28;20465;-75
2023/07/18 08:04:23;;;;;;;0.20;0.20;;;19.50;99.90;;;;;;5090844;28;20056;-82
2023/07/18 08:06:52;;;;;;;0.10;0.10;;;19.70;99.90;;;;;;5090730;28;20633;-82
2023/07/18 08:09:18;;;;;;;0.00;0.00;;;19.40;99.90;;;;;;5090416;28;20024;-79
2023/07/18 08:11:43;;;;;;;0.80;0.55;;;19.50;99.90;;;;;;5089945;28;20035;-81
2023/07/18 08:14:09;;;;;;;0.10;0.10;;;19.70;99.90;;;;;;5090209;28;20024;-77
2023/07/18 08:16:35;;;;;;;0.17;0.17;;;19.90;99.90;;;;;;5088755;28;20047;-78
2023/07/18 08:19:01;;;;;;;0.03;0.03;;;19.80;99.90;;;;;;5088994;28;20060;-82
2023/07/18 08:21:26;;;;;;;0.98;0.75;;;20.00;99.90;;;;;;5090342;28;20525;-82
2023/07/18 08:23:52;;;;;;;0.10;0.10;;;20.10;99.90;;;;;;5087904;28;20058;-82
2023/07/18 08:26:18;;;;;;;0.00;0.00;;;20.00;99.90;;;;;;5088703;28;20028;-82
2023/07/18 08:28:43;;;;;;;0.30;0.30;;;20.30;99.90;;;;;;5078103;28;20028;-83
2023/07/18 08:31:09;;;;;;;0.52;0.52;;;20.40;99.90;;;;;;5068038;28;20036;-82
2023/07/18 08:33:35;;;;;;;1.25;0.45;;;20.50;99.90;;;;;;5072874;28;20103;-83
2023/07/18 08:36:01;;;;;;;0.10;0.10;;;20.20;99.90;;;;;;5077527;28;20524;-82
2023/07/18 08:38:27;;;;;;;0.65;0.30;;;20.60;99.90;;;;;;5068752;28;20040;-83
2023/07/18 08:40:53;;;;;;;0.10;0.10;;;20.70;99.90;;;;;;5077793;28;20095;-82
2023/07/18 08:43:18;;;;;;;0.10;0.10;;;20.90;99.90;;;;;;5076085;28;20127;-83
2023/07/18 08:45:46;;;;;;;0.30;0.30;;;20.80;99.90;;;;;;5083540;28;20041;-80
2023/07/18 08:48:13;;;;;;;2.30;0.30;;;20.50;99.90;;;;;;5082026;28;20016;-80
2023/07/18 08:50:40;;;;;;;0.15;0.15;;;20.80;99.90;;;;;;5089856;28;20035;-79
2023/07/18 08:53:06;;;;;;;0.20;0.20;;;20.40;99.90;;;;;;5089195;28;20471;-75
2023/07/18 08:55:32;;;;;;;0.30;0.30;;;20.40;99.90;;;;;;5089663;28;20021;-73
2023/07/18 08:57:59;;;;;;;0.98;0.03;;;20.50;99.70;;;;;;5089317;28;20024;-77
2023/07/18 09:00:25;;;;;;;0.43;0.43;;;20.50;99.90;;;;;;5089445;28;20024;-79
2023/07/18 09:02:50;;;;;;;0.00;0.00;;;20.60;99.00;;;;;;5089097;28;20036;-80
2023/07/18 09:05:36;;;;;;;0.10;0.10;;;20.50;99.10;;;;;;5089658;28;20138;-75
2023/07/18 09:08:06;;;;;;;0.28;0.28;;;20.50;99.70;;;;;;5088004;28;20487;-75
2023/07/18 09:10:32;;;;;;;2.10;0.25;;;20.50;99.20;;;;;;5089249;28;20495;-79
2023/07/18 09:13:05;;;;;;;0.00;0.00;;;20.60;99.60;;;;;;5089285;28;20492;-75
2023/07/18 09:15:36;;;;;;;0.08;0.08;;;21.20;99.00;;;;;;5089232;28;20517;-80
2023/07/18 09:18:05;;;;;;;0.03;0.03;;;21.80;97.80;;;;;;5089364;28;20044;-79
2023/07/18 09:20:31;;;;;;;0.00;0.00;;;21.60;97.00;;;;;;5082436;28;20116;-79
2023/07/18 09:23:04;;;;;;;8.88;0.32;;;21.80;97.40;;;;;;5088677;28;20039;-75
2023/07/18 09:25:37;;;;;;;0.40;0.35;;;21.80;97.20;;;;;;5087795;28;20392;-80
2023/07/18 09:28:02;;;;;;;1.25;0.63;;;21.70;97.20;;;;;;5088424;28;20448;-80
2023/07/18 09:30:34;;;;;;;1.00;0.40;;;21.70;97.40;;;;;;5084449;28;20105;-80
2023/07/18 09:33:03;;;;;;;;;;;21.70;96.80;;;;;;5089543;28;20160;-79
2023/07/18 09:35:29;;;;;;;0.00;0.00;;;21.80;97.40;;;;;;5087450;28;19908;-77
2023/07/18 09:37:55;;;;;;;1.23;0.17;;;21.90;96.10;;;;;;5088663;28;20024;-80
2023/07/18 09:40:21;;;;;;;2.65;0.45;;;21.80;95.80;;;;;;5088797;28;20031;-79
2023/07/18 09:42:49;;;;;;;0.30;0.30;;;21.60;96.80;;;;;;5085236;28;20048;-79
2023/07/18 09:45:16;;;;;;;0.17;0.17;;;21.10;96.90;;;;;;5081033;28;20031;-79
2023/07/18 09:47:43;;;;;;;0.55;0.30;;;20.80;98.20;;;;;;5085439;28;20029;-79
2023/07/18 09:50:10;;;;;;;0.00;0.00;;;21.00;97.90;;;;;;5089137;28;20492;-79
2023/07/18 09:52:40;;;;;;;0.00;0.00;;;21.30;98.10;;;;;;5087189;28;20058;-79
2023/07/18 09:55:08;;;;;;;0.00;0.00;;;21.50;96.00;;;;;;5083614;28;20131;-79
2023/07/18 09:57:40;;;;;;;0.10;0.10;;;22.00;96.60;;;;;;5088138;28;20043;-75
2023/07/18 10:00:11;;;;;;;3.00;0.88;;;22.20;96.50;;;;;;5078636;28;20458;-80
2023/07/18 10:02:37;;;;;;;0.22;0.22;;;22.00;95.90;;;;;;5086728;28;20039;-79
2023/07/18 10:05:05;;;;;;;1.10;0.47;;;22.10;95.70;;;;;;5088099;28;20127;-79
2023/07/18 10:07:33;;;;;;;0.00;0.00;;;22.30;95.60;;;;;;5082354;28;20059;-72
2023/07/18 10:10:04;;;;;;;0.00;0.00;;;22.50;95.30;;;;;;5077643;28;20032;-71
2023/07/18 10:12:38;;;;;;;0.00;0.00;;;22.90;94.90;;;;;;5072464;28;20033;-72
2023/07/18 10:15:04;;;;;;;0.22;0.20;;;22.80;94.50;;;;;;5085534;28;20024;-71
2023/07/18 10:17:38;;;;;;;0.03;0.03;;;22.70;93.70;;;;;;5075823;28;20126;-71
2023/07/18 10:20:29;;;;;;;0.00;0.00;;;22.90;92.90;;;;;;5080050;28;20032;-77
2023/07/18 10:22:58;;;;;;;0.38;0.10;;;22.80;93.10;;;;;;5080484;28;20529;-78
2023/07/18 10:25:30;;;;;;;0.03;0.03;;;22.80;93.00;;;;;;5069192;28;20009;-80
2023/07/18 10:27:57;;;;;;;0.08;0.08;;;22.90;93.50;;;;;;5076677;28;20036;-80
2023/07/18 10:30:23;;;;;;;0.00;0.00;;;23.00;92.90;;;;;;5081190;28;20499;-81
2023/07/18 10:32:53;;;;;;;4.40;0.08;;;23.40;93.10;;;;;;5076034;28;20059;-79
2023/07/18 10:35:20;;;;;;;0.10;0.10;;;22.80;92.60;;;;;;5073103;28;20503;-78
2023/07/18 10:37:52;;;;;;;0.05;0.05;;;22.80;93.10;;;;;;5079908;28;20028;-80
2023/07/18 10:40:38;;;;;;;0.00;0.00;;;23.30;92.40;;;;;;5068189;28;20032;-80
2023/07/18 10:43:09;;;;;;;0.00;0.00;;;23.30;92.10;;;;;;5071852;28;20403;-80
2023/07/18 10:45:38;;;;;;;3.35;1.75;;;23.30;91.80;;;;;;5079470;28;20173;-79
2023/07/18 10:48:15;;;;;;;1.30;0.35;;;23.30;91.70;;;;;;5087846;28;20032;-72
2023/07/18 10:50:44;;;;;;;0.00;0.00;;;23.20;92.50;;;;;;5088135;28;20033;-80
2023/07/18 10:53:18;;;;;;;0.00;0.00;;;23.90;91.90;;;;;;5085897;28;20216;-79
2023/07/18 10:55:48;;;;;;;0.00;0.00;;;24.60;91.00;;;;;;5088234;28;20468;-74
2023/07/18 10:58:19;;;;;;;4.18;0.88;;;24.80;90.80;;;;;;5091793;28;20496;-81
2023/07/18 11:00:46;;;;;;;0.10;0.10;;;24.20;88.80;;;;;;5091847;28;20016;-80
2023/07/18 11:03:26;;;;;;;0.03;0.03;;;23.30;90.70;;;;;;5092768;28;20048;-74
2023/07/18 11:05:53;;;;;;;0.05;0.05;;;23.60;90.90;;;;;;5094118;28;20020;-71
2023/07/18 11:08:27;;;;;;;2.83;0.20;;;24.10;88.70;;;;;;5095633;28;20031;-71
2023/07/18 11:11:00;;;;;;;0.10;0.10;;;24.70;89.30;;;;;;5095712;28;20606;-70
2023/07/18 11:13:28;;;;;;;0.00;0.00;;;24.50;86.80;;;;;;5095397;28;20039;-72
2023/07/18 11:16:02;;;;;;;0.00;0.00;;;24.80;85.70;;;;;;5095756;28;20040;-73
2023/07/18 11:18:36;;;;;;;0.00;0.00;;;25.00;83.40;;;;;;5095094;28;20027;-72
2023/07/18 11:21:03;;;;;;;0.00;0.00;;;25.40;83.20;;;;;;5095581;28;20098;-71
2023/07/18 11:23:30;;;;;;;0.17;0.17;;;25.80;81.50;;;;;;5094421;28;20169;-71
2023/07/18 11:25:56;;;;;;;0.00;0.00;;;26.00;81.40;;;;;;5095239;28;20039;-71
2023/07/18 11:28:27;;;;;;;0.00;0.00;;;25.70;82.80;;;;;;5095403;28;20024;-71
2023/07/18 11:30:53;;;;;;;0.10;0.10;;;25.50;80.00;;;;;;5095117;28;20035;-71
2023/07/18 11:33:19;;;;;;;0.10;0.10;;;25.20;81.90;;;;;;5095204;28;20040;-71
2023/07/18 11:35:48;;;;;;;0.10;0.10;;;24.30;81.80;;;;;;5094998;28;20020;-71
2023/07/18 11:38:23;;;;;;;0.00;0.00;;;24.30;80.60;;;;;;5094274;28;20039;-71
2023/07/18 11:40:48;;;;;;;0.52;0.40;;;24.50;82.30;;;;;;5093746;28;20422;-72
2023/07/18 11:43:18;;;;;;;0.10;0.10;;;24.70;82.10;;;;;;5087757;28;20048;-71
2023/07/18 11:45:44;;;;;;;0.13;0.13;;;25.30;82.20;;;;;;5088729;28;20142;-71
2023/07/18 11:48:10;;;;;;;0.75;0.57;;;25.10;80.90;;;;;;5093566;28;20089;-71
2023/07/18 11:50:36;;;;;;;0.10;0.10;;;25.20;82.10;;;;;;5095022;28;20107;-71
2023/07/18 11:53:03;;;;;;;0.68;0.20;;;25.10;81.70;;;;;;5093703;28;20063;-71
2023/07/18 11:55:32;;;;;;;0.10;0.10;;;25.30;80.30;;;;;;5094832;28;20483;-72
2023/07/18 11:57:58;;;;;;;0.10;0.10;;;25.40;79.50;;;;;;5094785;28;20480;-71
2023/07/18 12:00:24;;;;;;;0.10;0.10;;;25.80;78.70;;;;;;5094725;28;20109;-72
2023/07/18 12:02:49;;;;;;;0.45;0.20;;;25.90;79.70;;;;;;5094267;28;20044;-72
2023/07/18 12:05:16;;;;;;;0.00;0.00;;;26.30;78.00;;;;;;5095327;28;20047;-79
2023/07/18 12:07:45;;;;;;;0.20;0.13;;;26.00;78.00;;;;;;5094561;28;20035;-79
2023/07/18 12:10:14;;;;;;;0.10;0.10;;;26.00;78.60;;;;;;5094649;28;20030;-79
2023/07/18 12:12:40;;;;;;;0.35;0.35;;;25.70;77.70;;;;;;5094580;28;20032;-80
2023/07/18 12:15:07;;;;;;;0.15;0.15;;;26.00;79.30;;;;;;5094340;28;20020;-78
2023/07/18 12:17:32;;;;;;;0.10;0.10;;;26.70;78.30;;;;;;5094252;28;20028;-80
2023/07/18 12:19:58;;;;;;;0.10;0.10;;;26.30;76.20;;;;;;5094332;28;20028;-80
2023/07/18 12:22:24;;;;;;;1.65;0.40;;;25.90;76.80;;;;;;5094406;28;20490;-79
2023/07/18 12:24:51;;;;;;;0.30;0.15;;;26.00;76.60;;;;;;5094272;28;20040;-80
2023/07/18 12:27:16;;;;;;;0.20;0.20;;;25.80;77.70;;;;;;5094374;28;20047;-80
2023/07/18 12:29:43;;;;;;;0.00;0.00;;;26.00;76.00;;;;;;5094396;28;20031;-79
2023/07/18 12:32:12;;;;;;;0.00;0.00;;;26.10;76.10;;;;;;5093812;28;20077;-80
2023/07/18 12:34:39;;;;;;;0.10;0.10;;;27.00;74.80;;;;;;5094231;28;20062;-80
2023/07/18 12:37:05;;;;;;;0.00;0.00;;;27.10;74.50;;;;;;5091866;28;20020;-80
2023/07/18 12:39:31;;;;;;;0.00;0.00;;;26.90;75.50;;;;;;5083451;28;20029;-79
2023/07/18 12:41:57;;;;;;;0.55;0.38;;;27.10;74.20;;;;;;5088396;28;20027;-80
2023/07/18 12:44:37;;;;;;;0.10;0.10;;;25.70;73.80;;;;;;5079842;28;20025;-80
2023/07/18 12:47:03;;;;;;;0.10;0.10;;;26.20;73.90;;;;;;5093742;28;20410;-80